sensor_id;sensor_type;location;lat;lon;timestamp;pressure;altitude;pressure_sealevel;temperature;humidity
71938;BME280;59810;48.800;9.086;2023-02-28T00:01:26;98313.63;;;-2.46;64.42
71938;BME280;59810;48.800;9.086;2023-02-28T00:03:51;98315.59;;;-2.48;65.00
71938;BME280;59810;48.800;9.086;2023-02-28T00:06:17;98307.13;;;-2.52;64.95
71938;BME280;59810;48.800;9.086;2023-02-28T00:08:42;98303.28;;;-2.57;65.07
71938;BME280;59810;48.800;9.086;2023-02-28T00:11:10;98309.78;;;-2.52;64.69
71938;BME280;59810;48.800;9.086;2023-02-28T00:13:39;98307.16;;;-2.61;65.59
71938;BME280;59810;48.800;9.086;2023-02-28T00:16:09;98309.41;;;-2.57;65.39
71938;BME280;59810;48.800;9.086;2023-02-28T00:18:35;98310.41;;;-2.67;65.36
71938;BME280;59810;48.800;9.086;2023-02-28T00:21:04;98311.25;;;-2.67;65.72
71938;BME280;59810;48.800;9.086;2023-02-28T00:23:32;98315.31;;;-2.72;66.25
71938;BME280;59810;48.800;9.086;2023-02-28T00:25:58;98311.03;;;-2.73;66.26
71938;BME280;59810;48.800;9.086;2023-02-28T00:28:23;98303.16;;;-2.83;65.80
71938;BME280;59810;48.800;9.086;2023-02-28T00:30:49;98310.94;;;-2.82;66.72
71938;BME280;59810;48.800;9.086;2023-02-28T00:33:18;98313.28;;;-2.78;66.25
71938;BME280;59810;48.800;9.086;2023-02-28T00:35:43;98307.84;;;-2.77;66.78
71938;BME280;59810;48.800;9.086;2023-02-28T00:38:11;98313.81;;;-2.75;66.29
71938;BME280;59810;48.800;9.086;2023-02-28T00:40:39;98311.84;;;-2.73;66.38
71938;BME280;59810;48.800;9.086;2023-02-28T00:43:07;98311.31;;;-2.76;66.05
71938;BME280;59810;48.800;9.086;2023-02-28T00:45:34;98305.34;;;-2.78;66.80
71938;BME280;59810;48.800;9.086;2023-02-28T00:48:02;98304.69;;;-2.80;66.73
71938;BME280;59810;48.800;9.086;2023-02-28T00:50:27;98306.34;;;-2.79;66.94
71938;BME280;59810;48.800;9.086;2023-02-28T00:52:53;98308.00;;;-2.78;66.97
71938;BME280;59810;48.800;9.086;2023-02-28T00:55:18;98300.00;;;-2.87;66.96
71938;BME280;59810;48.800;9.086;2023-02-28T00:57:46;98305.81;;;-2.83;67.66
71938;BME280;59810;48.800;9.086;2023-02-28T01:00:12;98306.78;;;-2.84;67.49
71938;BME280;59810;48.800;9.086;2023-02-28T01:02:39;98299.69;;;-2.84;67.54
71938;BME280;59810;48.800;9.086;2023-02-28T01:05:05;98301.84;;;-2.97;67.61
71938;BME280;59810;48.800;9.086;2023-02-28T01:07:30;98302.25;;;-2.92;68.12
71938;BME280;59810;48.800;9.086;2023-02-28T01:09:56;98300.16;;;-2.88;68.22
71938;BME280;59810;48.800;9.086;2023-02-28T01:12:21;98297.94;;;-2.93;68.31
71938;BME280;59810;48.800;9.086;2023-02-28T01:14:49;98298.06;;;-2.94;67.89
71938;BME280;59810;48.800;9.086;2023-02-28T01:17:15;98295.16;;;-2.91;68.87
71938;BME280;59810;48.800;9.086;2023-02-28T01:19:41;98292.72;;;-3.02;68.85
71938;BME280;59810;48.800;9.086;2023-02-28T01:22:06;98290.44;;;-2.97;69.29
71938;BME280;59810;48.800;9.086;2023-02-28T01:24:32;98280.03;;;-2.99;69.31
71938;BME280;59810;48.800;9.086;2023-02-28T01:27:03;98285.31;;;-2.99;69.78
71938;BME280;59810;48.800;9.086;2023-02-28T01:29:28;98287.97;;;-2.99;69.75
71938;BME280;59810;48.800;9.086;2023-02-28T01:31:54;98280.88;;;-2.98;69.98
71938;BME280;59810;48.800;9.086;2023-02-28T01:34:21;98295.72;;;-2.97;70.05
71938;BME280;59810;48.800;9.086;2023-02-28T01:36:47;98289.31;;;-2.95;70.16
71938;BME280;59810;48.800;9.086;2023-02-28T01:39:14;98285.69;;;-2.94;70.18
71938;BME280;59810;48.800;9.086;2023-02-28T01:41:40;98296.69;;;-2.89;70.01
71938;BME280;59810;48.800;9.086;2023-02-28T01:44:07;98289.31;;;-2.95;70.40
71938;BME280;59810;48.800;9.086;2023-02-28T01:46:51;98288.63;;;-2.97;70.33
71938;BME280;59810;48.800;9.086;2023-02-28T01:49:19;98294.59;;;-2.95;70.40
71938;BME280;59810;48.800;9.086;2023-02-28T01:51:49;98292.94;;;-2.96;70.88
71938;BME280;59810;48.800;9.086;2023-02-28T01:54:25;98284.88;;;-2.94;70.98
71938;BME280;59810;48.800;9.086;2023-02-28T01:57:04;98286.41;;;-2.92;71.14
71938;BME280;59810;48.800;9.086;2023-02-28T02:02:05;98279.06;;;-2.98;71.76
71938;BME280;59810;48.800;9.086;2023-02-28T02:04:36;98284.63;;;-3.01;71.56
71938;BME280;59810;48.800;9.086;2023-02-28T02:07:03;98274.22;;;-3.02;71.78
71938;BME280;59810;48.800;9.086;2023-02-28T02:09:29;98270.75;;;-3.03;72.25
71938;BME280;59810;48.800;9.086;2023-02-28T02:11:55;98274.91;;;-3.00;72.09
71938;BME280;59810;48.800;9.086;2023-02-28T02:14:40;98270.44;;;-3.00;72.49
71938;BME280;59810;48.800;9.086;2023-02-28T02:17:38;98270.91;;;-3.04;72.43
71938;BME280;59810;48.800;9.086;2023-02-28T02:31:29;98258.16;;;-3.09;73.25
71938;BME280;59810;48.800;9.086;2023-02-28T02:36:57;98249.25;;;-3.08;73.65
71938;BME280;59810;48.800;9.086;2023-02-28T02:39:31;98261.47;;;-3.07;74.12
71938;BME280;59810;48.800;9.086;2023-02-28T02:42:01;98253.91;;;-3.02;74.13
71938;BME280;59810;48.800;9.086;2023-02-28T02:47:08;98254.22;;;-3.05;74.10
71938;BME280;59810;48.800;9.086;2023-02-28T02:49:36;98251.50;;;-2.95;73.82
71938;BME280;59810;48.800;9.086;2023-02-28T02:52:09;98256.94;;;-2.97;73.94
71938;BME280;59810;48.800;9.086;2023-02-28T02:54:43;98257.63;;;-2.95;74.44
71938;BME280;59810;48.800;9.086;2023-02-28T02:57:14;98255.69;;;-2.93;73.89
71938;BME280;59810;48.800;9.086;2023-02-28T02:59:41;98255.09;;;-2.87;74.61
71938;BME280;59810;48.800;9.086;2023-02-28T03:02:12;98256.75;;;-2.86;73.73
71938;BME280;59810;48.800;9.086;2023-02-28T03:04:50;98258.19;;;-2.73;74.39
71938;BME280;59810;48.800;9.086;2023-02-28T03:07:17;98254.19;;;-2.77;73.69
71938;BME280;59810;48.800;9.086;2023-02-28T03:09:51;98253.56;;;-2.71;73.82
71938;BME280;59810;48.800;9.086;2023-02-28T03:12:17;98260.44;;;-2.78;74.74
71938;BME280;59810;48.800;9.086;2023-02-28T03:14:59;98260.22;;;-2.67;74.33
71938;BME280;59810;48.800;9.086;2023-02-28T03:20:14;98264.13;;;-2.71;74.26
71938;BME280;59810;48.800;9.086;2023-02-28T03:22:48;98263.38;;;-2.64;74.81
71938;BME280;59810;48.800;9.086;2023-02-28T03:25:35;98257.09;;;-2.63;74.69
71938;BME280;59810;48.800;9.086;2023-02-28T03:28:21;98269.75;;;-2.57;74.42
71938;BME280;59810;48.800;9.086;2023-02-28T03:30:54;98256.06;;;-2.52;73.90
71938;BME280;59810;48.800;9.086;2023-02-28T03:33:30;98258.50;;;-2.59;74.84
71938;BME280;59810;48.800;9.086;2023-02-28T03:36:01;98250.31;;;-2.47;75.06
71938;BME280;59810;48.800;9.086;2023-02-28T03:41:27;98253.19;;;-2.41;74.34
71938;BME280;59810;48.800;9.086;2023-02-28T03:43:58;98251.06;;;-2.37;74.60
71938;BME280;59810;48.800;9.086;2023-02-28T03:46:31;98246.75;;;-2.38;74.38
71938;BME280;59810;48.800;9.086;2023-02-28T03:49:18;98255.88;;;-2.33;74.63
71938;BME280;59810;48.800;9.086;2023-02-28T03:51:47;98252.41;;;-2.33;74.25
71938;BME280;59810;48.800;9.086;2023-02-28T03:54:31;98250.44;;;-2.31;74.20
71938;BME280;59810;48.800;9.086;2023-02-28T03:59:39;98245.97;;;-2.31;74.98
71938;BME280;59810;48.800;9.086;2023-02-28T04:02:09;98256.56;;;-2.31;74.54
71938;BME280;59810;48.800;9.086;2023-02-28T04:04:35;98249.31;;;-2.29;74.78
71938;BME280;59810;48.800;9.086;2023-02-28T04:07:07;98251.34;;;-2.23;74.90
71938;BME280;59810;48.800;9.086;2023-02-28T04:09:34;98255.34;;;-2.18;74.38
71938;BME280;59810;48.800;9.086;2023-02-28T04:11:59;98255.19;;;-2.17;74.28
71938;BME280;59810;48.800;9.086;2023-02-28T04:14:28;98257.22;;;-2.11;74.97
71938;BME280;59810;48.800;9.086;2023-02-28T04:16:53;98259.50;;;-2.16;74.79
71938;BME280;59810;48.800;9.086;2023-02-28T04:19:21;98253.53;;;-2.18;74.92
71938;BME280;59810;48.800;9.086;2023-02-28T04:21:51;98255.97;;;-2.25;74.81
71938;BME280;59810;48.800;9.086;2023-02-28T04:24:22;98249.38;;;-2.21;74.45
71938;BME280;59810;48.800;9.086;2023-02-28T04:26:51;98262.41;;;-2.27;74.74
71938;BME280;59810;48.800;9.086;2023-02-28T04:29:26;98260.59;;;-2.27;75.15
71938;BME280;59810;48.800;9.086;2023-02-28T04:31:52;98254.97;;;-2.24;75.03
71938;BME280;59810;48.800;9.086;2023-02-28T04:34:18;98257.84;;;-2.17;75.05
71938;BME280;59810;48.800;9.086;2023-02-28T04:36:44;98257.84;;;-2.17;75.36
71938;BME280;59810;48.800;9.086;2023-02-28T04:39:13;98244.81;;;-2.10;74.84
71938;BME280;59810;48.800;9.086;2023-02-28T04:41:39;98247.16;;;-2.07;74.75
71938;BME280;59810;48.800;9.086;2023-02-28T04:44:04;98242.19;;;-2.10;75.01
71938;BME280;59810;48.800;9.086;2023-02-28T04:46:29;98250.78;;;-2.08;74.76
71938;BME280;59810;48.800;9.086;2023-02-28T04:48:57;98248.81;;;-2.06;74.76
71938;BME280;59810;48.800;9.086;2023-02-28T04:51:24;98253.94;;;-2.05;74.32
71938;BME280;59810;48.800;9.086;2023-02-28T04:53:51;98248.91;;;-2.16;74.42
71938;BME280;59810;48.800;9.086;2023-02-28T04:56:18;98246.47;;;-2.09;74.96
71938;BME280;59810;48.800;9.086;2023-02-28T04:58:46;98247.16;;;-2.07;74.27
71938;BME280;59810;48.800;9.086;2023-02-28T05:01:23;98249.50;;;-2.04;74.65
71938;BME280;59810;48.800;9.086;2023-02-28T05:03:50;98248.50;;;-2.03;74.34
71938;BME280;59810;48.800;9.086;2023-02-28T05:06:16;98260.38;;;-2.07;74.93
71938;BME280;59810;48.800;9.086;2023-02-28T05:08:42;98252.66;;;-2.01;74.96
71938;BME280;59810;48.800;9.086;2023-02-28T05:11:14;98253.78;;;-2.03;73.99
71938;BME280;59810;48.800;9.086;2023-02-28T05:13:40;98254.09;;;-2.06;74.63
71938;BME280;59810;48.800;9.086;2023-02-28T05:16:05;98252.75;;;-2.10;74.45
71938;BME280;59810;48.800;9.086;2023-02-28T05:18:31;98255.75;;;-2.05;74.58
71938;BME280;59810;48.800;9.086;2023-02-28T05:20:56;98255.03;;;-2.15;74.60
71938;BME280;59810;48.800;9.086;2023-02-28T05:23:24;98257.44;;;-2.04;74.23
71938;BME280;59810;48.800;9.086;2023-02-28T05:25:55;98251.50;;;-1.98;74.86
71938;BME280;59810;48.800;9.086;2023-02-28T05:28:20;98257.47;;;-1.96;74.69
71938;BME280;59810;48.800;9.086;2023-02-28T05:30:46;98260.66;;;-1.93;74.76
71938;BME280;59810;48.800;9.086;2023-02-28T05:33:12;98260.66;;;-1.93;74.49
71938;BME280;59810;48.800;9.086;2023-02-28T05:35:39;98255.72;;;-1.88;74.13
71938;BME280;59810;48.800;9.086;2023-02-28T05:38:04;98260.19;;;-1.88;73.88
71938;BME280;59810;48.800;9.086;2023-02-28T05:40:32;98263.00;;;-1.90;74.50
71938;BME280;59810;48.800;9.086;2023-02-28T05:42:57;98260.66;;;-1.93;74.52
71938;BME280;59810;48.800;9.086;2023-02-28T05:45:23;98258.19;;;-1.94;74.82
71938;BME280;59810;48.800;9.086;2023-02-28T05:47:48;98265.97;;;-1.93;74.25
71938;BME280;59810;48.800;9.086;2023-02-28T05:50:14;98265.13;;;-1.93;74.52
71938;BME280;59810;48.800;9.086;2023-02-28T05:52:39;98268.44;;;-1.91;74.57
71938;BME280;59810;48.800;9.086;2023-02-28T05:55:06;98266.16;;;-1.86;74.14
71938;BME280;59810;48.800;9.086;2023-02-28T05:57:31;98262.84;;;-1.88;74.38
71938;BME280;59810;48.800;9.086;2023-02-28T05:59:56;98259.72;;;-1.83;74.05
71938;BME280;59810;48.800;9.086;2023-02-28T06:02:22;98258.53;;;-1.89;74.14
71938;BME280;59810;48.800;9.086;2023-02-28T06:04:47;98264.69;;;-1.80;74.56
71938;BME280;59810;48.800;9.086;2023-02-28T06:07:15;98260.22;;;-1.80;74.24
71938;BME280;59810;48.800;9.086;2023-02-28T06:09:42;98272.63;;;-1.80;73.98
71938;BME280;59810;48.800;9.086;2023-02-28T06:12:07;98265.16;;;-1.85;74.07
71938;BME280;59810;48.800;9.086;2023-02-28T06:14:35;98266.84;;;-1.84;74.19
71938;BME280;59810;48.800;9.086;2023-02-28T06:17:02;98262.53;;;-1.85;74.18
71938;BME280;59810;48.800;9.086;2023-02-28T06:19:28;98269.47;;;-1.84;74.14
71938;BME280;59810;48.800;9.086;2023-02-28T06:21:56;98270.16;;;-1.82;73.73
71938;BME280;59810;48.800;9.086;2023-02-28T06:24:23;98273.25;;;-1.86;74.85
71938;BME280;59810;48.800;9.086;2023-02-28T06:26:49;98281.19;;;-1.86;74.64
71938;BME280;59810;48.800;9.086;2023-02-28T06:29:15;98280.72;;;-1.82;74.58
71938;BME280;59810;48.800;9.086;2023-02-28T06:31:42;98279.22;;;-1.84;74.77
71938;BME280;59810;48.800;9.086;2023-02-28T06:34:11;98281.09;;;-1.77;74.01
71938;BME280;59810;48.800;9.086;2023-02-28T06:36:40;98287.53;;;-1.79;74.52
71938;BME280;59810;48.800;9.086;2023-02-28T06:39:06;98283.06;;;-1.79;74.72
71938;BME280;59810;48.800;9.086;2023-02-28T06:41:32;98290.66;;;-1.84;74.36
71938;BME280;59810;48.800;9.086;2023-02-28T06:44:10;98297.66;;;-1.75;74.85
71938;BME280;59810;48.800;9.086;2023-02-28T06:46:39;98297.69;;;-1.67;74.76
71938;BME280;59810;48.800;9.086;2023-02-28T06:49:08;98297.38;;;-1.64;74.26
71938;BME280;59810;48.800;9.086;2023-02-28T06:51:38;98300.72;;;-1.62;73.68
71938;BME280;59810;48.800;9.086;2023-02-28T06:54:06;98292.47;;;-1.59;73.57
71938;BME280;59810;48.800;9.086;2023-02-28T06:56:34;98295.56;;;-1.63;73.02
71938;BME280;59810;48.800;9.086;2023-02-28T06:59:00;98298.44;;;-1.57;73.49
71938;BME280;59810;48.800;9.086;2023-02-28T07:01:25;98298.44;;;-1.57;73.22
71938;BME280;59810;48.800;9.086;2023-02-28T07:03:51;98300.25;;;-1.57;73.20
71938;BME280;59810;48.800;9.086;2023-02-28T07:06:18;98304.56;;;-1.56;72.52
71938;BME280;59810;48.800;9.086;2023-02-28T07:08:44;98299.34;;;-1.66;73.07
71938;BME280;59810;48.800;9.086;2023-02-28T07:11:11;98306.63;;;-1.68;73.29
71938;BME280;59810;48.800;9.086;2023-02-28T07:13:37;98311.00;;;-1.59;73.48
71938;BME280;59810;48.800;9.086;2023-02-28T07:16:07;98311.34;;;-1.53;72.85
71938;BME280;59810;48.800;9.086;2023-02-28T07:18:34;98306.22;;;-1.55;73.14
71938;BME280;59810;48.800;9.086;2023-02-28T07:21:02;98308.06;;;-1.47;72.79
71938;BME280;59810;48.800;9.086;2023-02-28T07:23:28;98313.41;;;-1.39;73.08
71938;BME280;59810;48.800;9.086;2023-02-28T07:25:53;98314.91;;;-1.37;71.93
71938;BME280;59810;48.800;9.086;2023-02-28T07:28:19;98316.06;;;-1.39;72.00
71938;BME280;59810;48.800;9.086;2023-02-28T07:30:44;98318.50;;;-1.46;72.40
71938;BME280;59810;48.800;9.086;2023-02-28T07:33:12;98320.19;;;-1.37;72.02
71938;BME280;59810;48.800;9.086;2023-02-28T07:35:37;98318.53;;;-1.38;71.76
71938;BME280;59810;48.800;9.086;2023-02-28T07:38:03;98315.34;;;-1.49;71.86
71938;BME280;59810;48.800;9.086;2023-02-28T07:40:29;98322.66;;;-1.43;72.28
71938;BME280;59810;48.800;9.086;2023-02-28T07:42:57;98321.97;;;-1.45;72.29
71938;BME280;59810;48.800;9.086;2023-02-28T07:45:23;98324.03;;;-1.31;71.63
71938;BME280;59810;48.800;9.086;2023-02-28T07:47:49;98324.34;;;-1.34;71.18
71938;BME280;59810;48.800;9.086;2023-02-28T07:50:15;98319.38;;;-1.37;71.84
71938;BME280;59810;48.800;9.086;2023-02-28T07:52:41;98326.56;;;-1.30;71.44
71938;BME280;59810;48.800;9.086;2023-02-28T07:55:11;98329.41;;;-1.23;70.85
71938;BME280;59810;48.800;9.086;2023-02-28T07:57:36;98321.97;;;-1.19;70.89
71938;BME280;59810;48.800;9.086;2023-02-28T08:00:07;98325.09;;;-1.24;71.19
71938;BME280;59810;48.800;9.086;2023-02-28T08:02:35;98331.22;;;-1.23;70.75
71938;BME280;59810;48.800;9.086;2023-02-28T08:05:00;98323.94;;;-1.21;70.94
71938;BME280;59810;48.800;9.086;2023-02-28T08:07:26;98329.75;;;-1.18;70.86
71938;BME280;59810;48.800;9.086;2023-02-28T08:09:51;98338.19;;;-1.22;71.38
71938;BME280;59810;48.800;9.086;2023-02-28T08:12:17;98349.31;;;-1.11;70.82
71938;BME280;59810;48.800;9.086;2023-02-28T08:14:42;98337.91;;;-1.03;69.97
71938;BME280;59810;48.800;9.086;2023-02-28T08:17:10;98334.56;;;-1.13;70.62
71938;BME280;59810;48.800;9.086;2023-02-28T08:19:35;98334.69;;;-1.23;70.56
71938;BME280;59810;48.800;9.086;2023-02-28T08:22:01;98337.69;;;-1.18;70.64
71938;BME280;59810;48.800;9.086;2023-02-28T08:24:26;98333.72;;;-1.14;70.67
71938;BME280;59810;48.800;9.086;2023-02-28T08:26:52;98331.47;;;-1.01;70.59
71938;BME280;59810;48.800;9.086;2023-02-28T08:29:19;98338.63;;;-0.93;70.81
71938;BME280;59810;48.800;9.086;2023-02-28T08:31:45;98331.28;;;-1.07;70.31
71938;BME280;59810;48.800;9.086;2023-02-28T08:34:16;98341.22;;;-1.09;70.45
71938;BME280;59810;48.800;9.086;2023-02-28T08:36:43;98339.25;;;-0.99;71.22
71938;BME280;59810;48.800;9.086;2023-02-28T08:39:17;98341.13;;;-0.91;70.25
71938;BME280;59810;48.800;9.086;2023-02-28T08:41:45;98343.44;;;-0.97;70.38
71938;BME280;59810;48.800;9.086;2023-02-28T08:44:12;98334.78;;;-0.99;69.94
71938;BME280;59810;48.800;9.086;2023-02-28T08:46:38;98342.03;;;-1.09;70.45
71938;BME280;59810;48.800;9.086;2023-02-28T08:49:06;98341.56;;;-1.04;69.96
71938;BME280;59810;48.800;9.086;2023-02-28T08:51:32;98348.25;;;-0.92;70.03
71938;BME280;59810;48.800;9.086;2023-02-28T08:53:59;98350.09;;;-0.84;69.66
71938;BME280;59810;48.800;9.086;2023-02-28T08:56:30;98345.13;;;-0.79;69.97
71938;BME280;59810;48.800;9.086;2023-02-28T08:58:58;98348.78;;;-0.80;70.01
71938;BME280;59810;48.800;9.086;2023-02-28T09:01:28;98358.22;;;-0.78;69.45
71938;BME280;59810;48.800;9.086;2023-02-28T09:03:54;98358.09;;;-0.68;70.08
71938;BME280;59810;48.800;9.086;2023-02-28T09:06:22;98360.78;;;-0.60;70.21
71938;BME280;59810;48.800;9.086;2023-02-28T09:08:48;98348.03;;;-0.56;68.90
71938;BME280;59810;48.800;9.086;2023-02-28T09:11:14;98351.69;;;-0.57;68.25
71938;BME280;59810;48.800;9.086;2023-02-28T09:13:40;98357.47;;;-0.62;68.97
71938;BME280;59810;48.800;9.086;2023-02-28T09:16:08;98354.34;;;-0.49;71.71
71938;BME280;59810;48.800;9.086;2023-02-28T09:18:37;98351.84;;;-0.59;69.21
71938;BME280;59810;48.800;9.086;2023-02-28T09:21:08;98356.81;;;-0.56;68.78
71938;BME280;59810;48.800;9.086;2023-02-28T09:23:35;98358.66;;;-0.40;68.43
71938;BME280;59810;48.800;9.086;2023-02-28T09:26:03;98355.34;;;-0.42;67.57
71938;BME280;59810;48.800;9.086;2023-02-28T09:28:28;98350.22;;;-0.36;67.27
71938;BME280;59810;48.800;9.086;2023-02-28T09:30:54;98354.22;;;-0.32;67.03
71938;BME280;59810;48.800;9.086;2023-02-28T09:33:20;98353.41;;;-0.24;67.11
71938;BME280;59810;48.800;9.086;2023-02-28T09:35:58;98354.56;;;-0.10;66.96
71938;BME280;59810;48.800;9.086;2023-02-28T09:38:23;98357.91;;;0.08;65.92
71938;BME280;59810;48.800;9.086;2023-02-28T09:40:55;98345.94;;;0.28;63.72
71938;BME280;59810;48.800;9.086;2023-02-28T09:43:23;98353.94;;;0.37;63.22
71938;BME280;59810;48.800;9.086;2023-02-28T09:46:08;98364.03;;;0.25;62.32
71938;BME280;59810;48.800;9.086;2023-02-28T09:48:41;98360.41;;;0.34;63.26
71938;BME280;59810;48.800;9.086;2023-02-28T09:51:27;98368.53;;;0.49;63.43
71938;BME280;59810;48.800;9.086;2023-02-28T09:53:59;98369.69;;;0.38;63.14
71938;BME280;59810;48.800;9.086;2023-02-28T09:56:32;98363.00;;;0.58;63.30
71938;BME280;59810;48.800;9.086;2023-02-28T10:01:58;98370.97;;;0.75;61.84
71938;BME280;59810;48.800;9.086;2023-02-28T10:07:27;98363.19;;;0.73;60.64
71938;BME280;59810;48.800;9.086;2023-02-28T10:10:04;98367.91;;;0.94;60.88
71938;BME280;59810;48.800;9.086;2023-02-28T10:12:31;98367.41;;;1.07;60.55
71938;BME280;59810;48.800;9.086;2023-02-28T10:14:58;98358.41;;;1.08;60.46
71938;BME280;59810;48.800;9.086;2023-02-28T10:17:37;98367.00;;;1.18;60.45
71938;BME280;59810;48.800;9.086;2023-02-28T10:20:12;98372.28;;;1.34;60.62
71938;BME280;59810;48.800;9.086;2023-02-28T10:22:58;98380.03;;;1.44;59.91
71938;BME280;59810;48.800;9.086;2023-02-28T10:25:28;98386.97;;;1.53;59.50
71938;BME280;59810;48.800;9.086;2023-02-28T10:28:00;98385.59;;;1.65;59.28
71938;BME280;59810;48.800;9.086;2023-02-28T10:30:27;98387.81;;;1.53;58.52
71938;BME280;59810;48.800;9.086;2023-02-28T10:32:52;98391.06;;;1.72;59.93
71938;BME280;59810;48.800;9.086;2023-02-28T10:35:20;98392.47;;;1.51;58.34
71938;BME280;59810;48.800;9.086;2023-02-28T10:37:49;98385.44;;;1.67;58.41
71938;BME280;59810;48.800;9.086;2023-02-28T10:45:38;98380.25;;;1.96;57.63
71938;BME280;59810;48.800;9.086;2023-02-28T10:49:00;98377.28;;;1.91;57.72
71938;BME280;59810;48.800;9.086;2023-02-28T10:51:19;98380.75;;;1.69;58.14
71938;BME280;59810;48.800;9.086;2023-02-28T10:53:49;98376.91;;;1.94;57.95
71938;BME280;59810;48.800;9.086;2023-02-28T10:56:18;98378.94;;;2.15;56.81
71938;BME280;59810;48.800;9.086;2023-02-28T10:59:32;98379.97;;;2.14;57.20
71938;BME280;59810;48.800;9.086;2023-02-28T11:01:46;98380.50;;;2.09;56.64
71938;BME280;59810;48.800;9.086;2023-02-28T11:07:03;98382.81;;;2.50;57.19
71938;BME280;59810;48.800;9.086;2023-02-28T11:09:34;98374.53;;;2.83;56.43
71938;BME280;59810;48.800;9.086;2023-02-28T11:12:02;98377.47;;;2.88;54.89
71938;BME280;59810;48.800;9.086;2023-02-28T11:14:33;98376.00;;;2.85;53.99
71938;BME280;59810;48.800;9.086;2023-02-28T11:17:13;98369.41;;;3.10;56.38
71938;BME280;59810;48.800;9.086;2023-02-28T11:19:44;98368.53;;;3.25;55.03
71938;BME280;59810;48.800;9.086;2023-02-28T11:22:17;98364.31;;;3.45;54.60
71938;BME280;59810;48.800;9.086;2023-02-28T11:24:47;98360.75;;;3.08;53.82
71938;BME280;59810;48.800;9.086;2023-02-28T11:27:42;98359.44;;;3.19;54.79
71938;BME280;59810;48.800;9.086;2023-02-28T11:33:20;98359.78;;;3.96;54.12
71938;BME280;59810;48.800;9.086;2023-02-28T11:35:48;98365.16;;;3.82;53.58
71938;BME280;59810;48.800;9.086;2023-02-28T11:38:15;98359.63;;;3.83;52.87
71938;BME280;59810;48.800;9.086;2023-02-28T11:40:46;98360.78;;;3.95;53.03
71938;BME280;59810;48.800;9.086;2023-02-28T11:46:01;98348.91;;;4.68;52.65
71938;BME280;59810;48.800;9.086;2023-02-28T11:51:33;98345.84;;;4.50;51.25
71938;BME280;59810;48.800;9.086;2023-02-28T11:56:57;98344.56;;;4.67;50.86
71938;BME280;59810;48.800;9.086;2023-02-28T12:04:46;98342.97;;;4.73;50.02
71938;BME280;59810;48.800;9.086;2023-02-28T12:10:01;98336.91;;;5.27;49.70
71938;BME280;59810;48.800;9.086;2023-02-28T12:21:01;98332.66;;;6.13;47.31
71938;BME280;59810;48.800;9.086;2023-02-28T12:26:44;98320.75;;;6.29;47.38
71938;BME280;59810;48.800;9.086;2023-02-28T12:29:21;98333.75;;;6.52;46.69
71938;BME280;59810;48.800;9.086;2023-02-28T12:34:25;98320.31;;;6.59;46.09
71938;BME280;59810;48.800;9.086;2023-02-28T12:36:53;98316.19;;;6.49;45.80
71938;BME280;59810;48.800;9.086;2023-02-28T12:39:29;98317.00;;;6.43;46.21
71938;BME280;59810;48.800;9.086;2023-02-28T12:42:13;98313.91;;;6.40;45.02
71938;BME280;59810;48.800;9.086;2023-02-28T12:44:53;98303.94;;;5.87;47.26
71938;BME280;59810;48.800;9.086;2023-02-28T12:47:19;98306.88;;;5.92;46.23
71938;BME280;59810;48.800;9.086;2023-02-28T12:49:59;98304.84;;;6.34;47.02
71938;BME280;59810;48.800;9.086;2023-02-28T13:09:10;98304.13;;;5.79;46.07
71938;BME280;59810;48.800;9.086;2023-02-28T13:11:43;98298.13;;;5.71;46.15
71938;BME280;59810;48.800;9.086;2023-02-28T13:17:10;98296.28;;;5.17;47.36
71938;BME280;59810;48.800;9.086;2023-02-28T13:19:45;98299.16;;;5.15;48.03
71938;BME280;59810;48.800;9.086;2023-02-28T13:22:35;98303.16;;;5.32;48.00
71938;BME280;59810;48.800;9.086;2023-02-28T13:27:57;98300.91;;;5.36;47.25
71938;BME280;59810;48.800;9.086;2023-02-28T13:36:07;98296.59;;;6.42;46.26
71938;BME280;59810;48.800;9.086;2023-02-28T13:38:36;98294.06;;;6.80;44.92
71938;BME280;59810;48.800;9.086;2023-02-28T13:52:11;98308.09;;;6.82;44.48
71938;BME280;59810;48.800;9.086;2023-02-28T13:55:11;98304.59;;;6.89;44.00
71938;BME280;59810;48.800;9.086;2023-02-28T14:08:35;98286.09;;;6.21;45.17
71938;BME280;59810;48.800;9.086;2023-02-28T14:11:06;98295.34;;;6.71;44.16
71938;BME280;59810;48.800;9.086;2023-02-28T14:16:10;98293.44;;;6.92;43.78
71938;BME280;59810;48.800;9.086;2023-02-28T14:18:40;98293.03;;;6.88;43.16
71938;BME280;59810;48.800;9.086;2023-02-28T14:37:33;98283.94;;;6.82;43.23
71938;BME280;59810;48.800;9.086;2023-02-28T14:40:02;98290.56;;;6.73;43.61
71938;BME280;59810;48.800;9.086;2023-02-28T14:42:33;98298.00;;;6.91;43.53
71938;BME280;59810;48.800;9.086;2023-02-28T14:44:59;98285.50;;;7.23;43.65
71938;BME280;59810;48.800;9.086;2023-02-28T14:47:28;98290.69;;;7.11;42.68
71938;BME280;59810;48.800;9.086;2023-02-28T14:49:57;98293.50;;;6.45;44.14
71938;BME280;59810;48.800;9.086;2023-02-28T14:52:30;98301.28;;;6.80;43.44
71938;BME280;59810;48.800;9.086;2023-02-28T14:54:59;98292.88;;;6.63;44.74
71938;BME280;59810;48.800;9.086;2023-02-28T14:57:28;98291.41;;;6.87;44.09
71938;BME280;59810;48.800;9.086;2023-02-28T15:00:25;98292.88;;;6.30;44.02
71938;BME280;59810;48.800;9.086;2023-02-28T15:02:53;98296.59;;;6.36;45.08
71938;BME280;59810;48.800;9.086;2023-02-28T15:05:29;98302.56;;;6.38;44.60
71938;BME280;59810;48.800;9.086;2023-02-28T15:08:05;98305.25;;;6.58;44.44
71938;BME280;59810;48.800;9.086;2023-02-28T15:10:31;98307.94;;;6.64;44.27
71938;BME280;59810;48.800;9.086;2023-02-28T15:13:04;98299.91;;;6.58;44.46
71938;BME280;59810;48.800;9.086;2023-02-28T15:15:55;98296.59;;;6.42;44.20
71938;BME280;59810;48.800;9.086;2023-02-28T15:18:30;98306.88;;;5.92;45.42
71938;BME280;59810;48.800;9.086;2023-02-28T15:21:02;98308.22;;;5.69;45.63
71938;BME280;59810;48.800;9.086;2023-02-28T15:23:29;98309.88;;;5.70;47.23
71938;BME280;59810;48.800;9.086;2023-02-28T15:25:55;98299.97;;;5.63;46.42
71938;BME280;59810;48.800;9.086;2023-02-28T15:28:22;98305.34;;;5.70;47.24
71938;BME280;59810;48.800;9.086;2023-02-28T15:30:58;98305.13;;;5.58;46.46
71938;BME280;59810;48.800;9.086;2023-02-28T15:33:26;98301.03;;;5.76;46.99
71938;BME280;59810;48.800;9.086;2023-02-28T15:36:04;98305.31;;;5.63;46.74
71938;BME280;59810;48.800;9.086;2023-02-28T15:38:34;98308.03;;;5.83;47.21
71938;BME280;59810;48.800;9.086;2023-02-28T15:40:59;98299.16;;;5.76;47.03